sensor_id;sensor_type;location;lat;lon;timestamp;P1;durP1;ratioP1;P2;durP2;ratioP2
64619;SDS011;51029;51.058;13.826;2023-08-20T00:00:18;14.83;;;13.53;;
64619;SDS011;51029;51.058;13.826;2023-08-20T00:02:45;14.80;;;13.17;;
64619;SDS011;51029;51.058;13.826;2023-08-20T00:05:12;14.97;;;13.43;;
64619;SDS011;51029;51.058;13.826;2023-08-20T00:07:38;14.63;;;13.13;;
64619;SDS011;51029;51.058;13.826;2023-08-20T00:10:04;14.23;;;12.93;;
64619;SDS011;51029;51.058;13.826;2023-08-20T00:12:31;13.80;;;12.50;;
64619;SDS011;51029;51.058;13.826;2023-08-20T00:15:03;14.83;;;13.33;;
64619;SDS011;51029;51.058;13.826;2023-08-20T00:17:36;14.33;;;12.93;;
64619;SDS011;51029;51.058;13.826;2023-08-20T00:20:03;14.10;;;12.73;;
64619;SDS011;51029;51.058;13.826;2023-08-20T00:22:35;13.80;;;12.37;;
64619;SDS011;51029;51.058;13.826;2023-08-20T00:25:02;14.60;;;13.23;;
64619;SDS011;51029;51.058;13.826;2023-08-20T00:27:31;14.10;;;12.80;;
64619;SDS011;51029;51.058;13.826;2023-08-20T00:29:56;13.07;;;11.93;;
64619;SDS011;51029;51.058;13.826;2023-08-20T00:32:22;13.17;;;12.07;;
64619;SDS011;51029;51.058;13.826;2023-08-20T00:34:48;14.40;;;12.90;;
64619;SDS011;51029;51.058;13.826;2023-08-20T00:37:13;13.83;;;12.30;;
64619;SDS011;51029;51.058;13.826;2023-08-20T00:39:39;13.00;;;11.80;;
64619;SDS011;51029;51.058;13.826;2023-08-20T00:42:05;12.67;;;11.57;;
64619;SDS011;51029;51.058;13.826;2023-08-20T00:44:32;13.33;;;11.97;;
64619;SDS011;51029;51.058;13.826;2023-08-20T00:46:58;12.67;;;11.53;;
64619;SDS011;51029;51.058;13.826;2023-08-20T00:49:25;13.13;;;11.93;;
64619;SDS011;51029;51.058;13.826;2023-08-20T00:51:51;13.10;;;11.80;;
64619;SDS011;51029;51.058;13.826;2023-08-20T00:54:18;12.60;;;11.37;;
64619;SDS011;51029;51.058;13.826;2023-08-20T00:56:45;12.80;;;11.27;;
64619;SDS011;51029;51.058;13.826;2023-08-20T00:59:12;12.77;;;11.53;;
64619;SDS011;51029;51.058;13.826;2023-08-20T01:01:38;13.00;;;11.70;;
64619;SDS011;51029;51.058;13.826;2023-08-20T01:04:04;13.83;;;12.37;;
64619;SDS011;51029;51.058;13.826;2023-08-20T01:09:37;12.40;;;11.20;;
64619;SDS011;51029;51.058;13.826;2023-08-20T01:12:17;13.10;;;11.73;;
64619;SDS011;51029;51.058;13.826;2023-08-20T01:14:44;13.00;;;11.83;;
64619;SDS011;51029;51.058;13.826;2023-08-20T01:17:09;11.83;;;10.73;;
64619;SDS011;51029;51.058;13.826;2023-08-20T01:19:35;12.10;;;11.00;;
64619;SDS011;51029;51.058;13.826;2023-08-20T01:30:48;13.13;;;11.93;;
64619;SDS011;51029;51.058;13.826;2023-08-20T01:33:14;12.37;;;11.27;;
64619;SDS011;51029;51.058;13.826;2023-08-20T01:35:41;12.80;;;11.70;;
64619;SDS011;51029;51.058;13.826;2023-08-20T01:38:06;13.37;;;11.97;;
64619;SDS011;51029;51.058;13.826;2023-08-20T01:40:32;13.67;;;12.37;;
64619;SDS011;51029;51.058;13.826;2023-08-20T01:42:58;13.30;;;12.13;;
64619;SDS011;51029;51.058;13.826;2023-08-20T01:45:24;12.67;;;11.27;;
64619;SDS011;51029;51.058;13.826;2023-08-20T01:47:51;12.60;;;11.43;;
64619;SDS011;51029;51.058;13.826;2023-08-20T01:50:16;13.80;;;12.33;;
64619;SDS011;51029;51.058;13.826;2023-08-20T01:52:42;12.73;;;11.40;;
64619;SDS011;51029;51.058;13.826;2023-08-20T01:55:08;12.73;;;11.53;;
64619;SDS011;51029;51.058;13.826;2023-08-20T01:57:33;14.00;;;11.77;;
64619;SDS011;51029;51.058;13.826;2023-08-20T01:59:59;13.77;;;12.40;;
64619;SDS011;51029;51.058;13.826;2023-08-20T02:02:24;12.80;;;11.60;;
64619;SDS011;51029;51.058;13.826;2023-08-20T02:04:50;12.93;;;11.73;;
64619;SDS011;51029;51.058;13.826;2023-08-20T02:07:15;13.70;;;12.30;;
64619;SDS011;51029;51.058;13.826;2023-08-20T02:09:42;12.70;;;11.50;;
64619;SDS011;51029;51.058;13.826;2023-08-20T02:12:08;13.37;;;12.07;;
64619;SDS011;51029;51.058;13.826;2023-08-20T02:14:34;13.93;;;12.57;;
64619;SDS011;51029;51.058;13.826;2023-08-20T02:17:03;12.90;;;11.77;;
64619;SDS011;51029;51.058;13.826;2023-08-20T02:19:29;13.53;;;12.23;;
64619;SDS011;51029;51.058;13.826;2023-08-20T02:21:55;12.57;;;11.47;;
64619;SDS011;51029;51.058;13.826;2023-08-20T02:24:21;13.63;;;12.50;;
64619;SDS011;51029;51.058;13.826;2023-08-20T02:26:46;13.57;;;12.27;;
64619;SDS011;51029;51.058;13.826;2023-08-20T02:29:12;14.53;;;12.73;;
64619;SDS011;51029;51.058;13.826;2023-08-20T02:31:38;12.77;;;11.67;;
64619;SDS011;51029;51.058;13.826;2023-08-20T02:34:03;12.80;;;11.60;;
64619;SDS011;51029;51.058;13.826;2023-08-20T02:36:29;13.10;;;11.70;;
64619;SDS011;51029;51.058;13.826;2023-08-20T02:38:54;13.30;;;11.93;;
64619;SDS011;51029;51.058;13.826;2023-08-20T02:41:20;12.33;;;11.33;;
64619;SDS011;51029;51.058;13.826;2023-08-20T02:43:45;13.30;;;12.20;;
64619;SDS011;51029;51.058;13.826;2023-08-20T02:46:11;12.00;;;11.00;;
64619;SDS011;51029;51.058;13.826;2023-08-20T02:48:37;12.83;;;11.73;;
64619;SDS011;51029;51.058;13.826;2023-08-20T02:51:02;13.63;;;12.33;;
64619;SDS011;51029;51.058;13.826;2023-08-20T02:53:28;13.67;;;12.30;;
64619;SDS011;51029;51.058;13.826;2023-08-20T02:55:54;13.43;;;12.13;;
64619;SDS011;51029;51.058;13.826;2023-08-20T02:58:21;13.33;;;12.13;;
64619;SDS011;51029;51.058;13.826;2023-08-20T03:00:46;13.13;;;12.07;;
64619;SDS011;51029;51.058;13.826;2023-08-20T03:03:12;12.77;;;11.77;;
64619;SDS011;51029;51.058;13.826;2023-08-20T03:05:38;13.57;;;12.33;;
64619;SDS011;51029;51.058;13.826;2023-08-20T03:08:03;13.00;;;11.93;;
64619;SDS011;51029;51.058;13.826;2023-08-20T03:10:29;13.13;;;11.87;;
64619;SDS011;51029;51.058;13.826;2023-08-20T03:12:56;13.17;;;11.97;;
64619;SDS011;51029;51.058;13.826;2023-08-20T03:15:23;13.37;;;11.97;;
64619;SDS011;51029;51.058;13.826;2023-08-20T03:17:48;13.10;;;11.80;;
64619;SDS011;51029;51.058;13.826;2023-08-20T03:20:14;13.23;;;11.93;;
64619;SDS011;51029;51.058;13.826;2023-08-20T03:22:39;12.47;;;11.47;;
64619;SDS011;51029;51.058;13.826;2023-08-20T03:25:05;13.63;;;12.30;;
64619;SDS011;51029;51.058;13.826;2023-08-20T03:27:31;13.40;;;12.13;;
64619;SDS011;51029;51.058;13.826;2023-08-20T03:29:57;13.60;;;12.40;;
64619;SDS011;51029;51.058;13.826;2023-08-20T03:32:23;13.60;;;12.40;;
64619;SDS011;51029;51.058;13.826;2023-08-20T03:34:48;13.60;;;12.50;;
64619;SDS011;51029;51.058;13.826;2023-08-20T03:37:14;13.40;;;12.10;;
64619;SDS011;51029;51.058;13.826;2023-08-20T03:39:40;14.37;;;13.00;;
64619;SDS011;51029;51.058;13.826;2023-08-20T03:42:05;13.20;;;11.97;;
64619;SDS011;51029;51.058;13.826;2023-08-20T03:44:31;12.93;;;11.83;;
64619;SDS011;51029;51.058;13.826;2023-08-20T03:46:57;13.37;;;12.17;;
64619;SDS011;51029;51.058;13.826;2023-08-20T03:49:23;13.83;;;12.27;;
64619;SDS011;51029;51.058;13.826;2023-08-20T03:51:48;13.77;;;12.57;;
64619;SDS011;51029;51.058;13.826;2023-08-20T03:54:14;13.03;;;11.93;;
64619;SDS011;51029;51.058;13.826;2023-08-20T03:56:39;14.07;;;12.70;;
64619;SDS011;51029;51.058;13.826;2023-08-20T03:59:05;14.73;;;12.50;;
64619;SDS011;51029;51.058;13.826;2023-08-20T04:01:31;13.10;;;11.90;;
64619;SDS011;51029;51.058;13.826;2023-08-20T04:03:56;13.90;;;12.70;;
64619;SDS011;51029;51.058;13.826;2023-08-20T04:06:22;13.17;;;12.00;;
64619;SDS011;51029;51.058;13.826;2023-08-20T04:08:47;13.67;;;12.37;;
64619;SDS011;51029;51.058;13.826;2023-08-20T04:11:13;13.63;;;12.33;;
64619;SDS011;51029;51.058;13.826;2023-08-20T04:13:39;13.07;;;11.87;;
64619;SDS011;51029;51.058;13.826;2023-08-20T04:16:07;14.53;;;12.53;;
64619;SDS011;51029;51.058;13.826;2023-08-20T04:18:33;14.47;;;12.00;;
64619;SDS011;51029;51.058;13.826;2023-08-20T04:20:58;14.33;;;12.83;;
64619;SDS011;51029;51.058;13.826;2023-08-20T04:23:24;13.90;;;12.47;;
64619;SDS011;51029;51.058;13.826;2023-08-20T04:25:50;13.23;;;12.10;;
64619;SDS011;51029;51.058;13.826;2023-08-20T04:28:15;12.67;;;11.63;;
64619;SDS011;51029;51.058;13.826;2023-08-20T04:30:41;13.60;;;12.33;;
64619;SDS011;51029;51.058;13.826;2023-08-20T04:33:07;13.60;;;12.10;;
64619;SDS011;51029;51.058;13.826;2023-08-20T04:35:33;13.57;;;12.27;;
64619;SDS011;51029;51.058;13.826;2023-08-20T04:37:59;13.50;;;12.30;;
64619;SDS011;51029;51.058;13.826;2023-08-20T04:40:24;13.37;;;12.20;;
64619;SDS011;51029;51.058;13.826;2023-08-20T04:42:50;13.20;;;11.90;;
64619;SDS011;51029;51.058;13.826;2023-08-20T04:45:16;13.63;;;12.00;;
64619;SDS011;51029;51.058;13.826;2023-08-20T04:47:44;12.63;;;11.53;;
64619;SDS011;51029;51.058;13.826;2023-08-20T04:50:10;13.97;;;12.70;;
64619;SDS011;51029;51.058;13.826;2023-08-20T04:52:36;12.80;;;11.70;;
64619;SDS011;51029;51.058;13.826;2023-08-20T04:55:01;12.37;;;11.27;;
64619;SDS011;51029;51.058;13.826;2023-08-20T04:57:27;12.77;;;11.70;;
64619;SDS011;51029;51.058;13.826;2023-08-20T04:59:53;12.60;;;11.50;;
64619;SDS011;51029;51.058;13.826;2023-08-20T05:02:18;12.93;;;11.73;;
64619;SDS011;51029;51.058;13.826;2023-08-20T05:04:44;12.57;;;11.57;;
64619;SDS011;51029;51.058;13.826;2023-08-20T05:07:10;12.93;;;11.73;;
64619;SDS011;51029;51.058;13.826;2023-08-20T05:09:35;13.13;;;11.70;;
64619;SDS011;51029;51.058;13.826;2023-08-20T05:12:01;12.87;;;11.57;;
64619;SDS011;51029;51.058;13.826;2023-08-20T05:14:27;13.50;;;11.90;;
64619;SDS011;51029;51.058;13.826;2023-08-20T05:16:53;12.63;;;11.53;;
64619;SDS011;51029;51.058;13.826;2023-08-20T05:19:19;12.77;;;11.43;;
64619;SDS011;51029;51.058;13.826;2023-08-20T05:21:44;13.17;;;11.87;;
64619;SDS011;51029;51.058;13.826;2023-08-20T05:24:10;12.77;;;11.53;;
64619;SDS011;51029;51.058;13.826;2023-08-20T05:26:35;12.83;;;11.57;;
64619;SDS011;51029;51.058;13.826;2023-08-20T05:29:01;12.37;;;11.27;;
64619;SDS011;51029;51.058;13.826;2023-08-20T05:31:27;12.57;;;11.27;;
64619;SDS011;51029;51.058;13.826;2023-08-20T05:33:53;12.60;;;11.43;;
64619;SDS011;51029;51.058;13.826;2023-08-20T05:36:18;12.27;;;11.10;;
64619;SDS011;51029;51.058;13.826;2023-08-20T05:38:44;13.27;;;11.87;;
64619;SDS011;51029;51.058;13.826;2023-08-20T05:41:10;12.33;;;10.87;;
64619;SDS011;51029;51.058;13.826;2023-08-20T05:43:35;13.07;;;11.77;;
64619;SDS011;51029;51.058;13.826;2023-08-20T05:46:03;12.63;;;11.53;;
64619;SDS011;51029;51.058;13.826;2023-08-20T05:48:29;13.03;;;11.83;;
64619;SDS011;51029;51.058;13.826;2023-08-20T05:50:55;13.03;;;11.57;;
64619;SDS011;51029;51.058;13.826;2023-08-20T05:53:21;12.43;;;11.20;;
64619;SDS011;51029;51.058;13.826;2023-08-20T05:55:47;12.40;;;11.10;;
64619;SDS011;51029;51.058;13.826;2023-08-20T05:58:13;11.90;;;10.80;;
64619;SDS011;51029;51.058;13.826;2023-08-20T06:00:39;11.27;;;10.27;;
64619;SDS011;51029;51.058;13.826;2023-08-20T06:03:05;11.20;;;9.97;;
64619;SDS011;51029;51.058;13.826;2023-08-20T06:05:32;12.03;;;10.47;;
64619;SDS011;51029;51.058;13.826;2023-08-20T06:07:58;11.60;;;10.50;;
64619;SDS011;51029;51.058;13.826;2023-08-20T06:10:23;11.27;;;10.10;;
64619;SDS011;51029;51.058;13.826;2023-08-20T06:12:49;11.07;;;10.07;;
64619;SDS011;51029;51.058;13.826;2023-08-20T06:15:15;12.97;;;10.23;;
64619;SDS011;51029;51.058;13.826;2023-08-20T06:17:40;11.20;;;10.20;;
64619;SDS011;51029;51.058;13.826;2023-08-20T06:20:06;10.73;;;9.73;;
64619;SDS011;51029;51.058;13.826;2023-08-20T06:22:33;12.03;;;9.50;;
64619;SDS011;51029;51.058;13.826;2023-08-20T06:24:59;11.00;;;10.00;;
64619;SDS011;51029;51.058;13.826;2023-08-20T06:27:25;11.83;;;9.70;;
64619;SDS011;51029;51.058;13.826;2023-08-20T06:29:50;13.40;;;9.60;;
64619;SDS011;51029;51.058;13.826;2023-08-20T06:32:16;11.20;;;9.03;;
64619;SDS011;51029;51.058;13.826;2023-08-20T06:34:42;9.57;;;8.57;;
64619;SDS011;51029;51.058;13.826;2023-08-20T06:37:07;13.17;;;9.67;;
64619;SDS011;51029;51.058;13.826;2023-08-20T06:39:33;11.90;;;9.17;;
64619;SDS011;51029;51.058;13.826;2023-08-20T06:41:58;13.97;;;9.67;;
64619;SDS011;51029;51.058;13.826;2023-08-20T06:44:24;9.73;;;8.80;;
64619;SDS011;51029;51.058;13.826;2023-08-20T06:46:49;10.90;;;8.80;;
64619;SDS011;51029;51.058;13.826;2023-08-20T06:49:15;9.80;;;8.80;;
64619;SDS011;51029;51.058;13.826;2023-08-20T06:51:40;9.20;;;8.37;;
64619;SDS011;51029;51.058;13.826;2023-08-20T06:54:06;13.00;;;9.33;;
64619;SDS011;51029;51.058;13.826;2023-08-20T06:56:32;10.60;;;9.53;;
64619;SDS011;51029;51.058;13.826;2023-08-20T06:58:57;10.30;;;9.20;;
64619;SDS011;51029;51.058;13.826;2023-08-20T07:01:23;11.33;;;9.10;;
64619;SDS011;51029;51.058;13.826;2023-08-20T07:03:48;10.30;;;9.17;;
64619;SDS011;51029;51.058;13.826;2023-08-20T07:06:14;10.83;;;9.20;;
64619;SDS011;51029;51.058;13.826;2023-08-20T07:08:41;10.63;;;8.87;;
64619;SDS011;51029;51.058;13.826;2023-08-20T07:11:07;10.23;;;9.03;;
64619;SDS011;51029;51.058;13.826;2023-08-20T07:13:33;10.67;;;9.10;;
64619;SDS011;51029;51.058;13.826;2023-08-20T07:15:58;9.90;;;8.90;;
64619;SDS011;51029;51.058;13.826;2023-08-20T07:18:24;12.30;;;9.73;;
64619;SDS011;51029;51.058;13.826;2023-08-20T07:20:50;9.93;;;8.93;;
64619;SDS011;51029;51.058;13.826;2023-08-20T07:23:16;12.47;;;10.00;;
64619;SDS011;51029;51.058;13.826;2023-08-20T07:25:42;10.37;;;9.20;;
64619;SDS011;51029;51.058;13.826;2023-08-20T07:28:09;13.40;;;9.13;;
64619;SDS011;51029;51.058;13.826;2023-08-20T07:30:35;10.47;;;9.57;;
64619;SDS011;51029;51.058;13.826;2023-08-20T07:33:01;11.10;;;10.00;;
64619;SDS011;51029;51.058;13.826;2023-08-20T07:35:27;9.80;;;8.77;;
64619;SDS011;51029;51.058;13.826;2023-08-20T07:37:53;10.43;;;9.20;;
64619;SDS011;51029;51.058;13.826;2023-08-20T07:40:19;10.77;;;9.67;;
64619;SDS011;51029;51.058;13.826;2023-08-20T07:42:45;10.83;;;9.70;;
64619;SDS011;51029;51.058;13.826;2023-08-20T07:45:10;10.67;;;9.63;;
64619;SDS011;51029;51.058;13.826;2023-08-20T07:47:36;10.40;;;9.43;;
64619;SDS011;51029;51.058;13.826;2023-08-20T07:50:03;10.77;;;9.57;;
64619;SDS011;51029;51.058;13.826;2023-08-20T07:52:29;10.83;;;9.70;;
64619;SDS011;51029;51.058;13.826;2023-08-20T07:54:55;9.80;;;8.90;;
64619;SDS011;51029;51.058;13.826;2023-08-20T07:57:21;12.23;;;9.50;;
64619;SDS011;51029;51.058;13.826;2023-08-20T07:59:48;9.60;;;8.60;;
64619;SDS011;51029;51.058;13.826;2023-08-20T08:02:14;10.50;;;9.50;;
64619;SDS011;51029;51.058;13.826;2023-08-20T08:04:39;10.70;;;9.60;;
64619;SDS011;51029;51.058;13.826;2023-08-20T08:07:05;10.10;;;9.03;;
64619;SDS011;51029;51.058;13.826;2023-08-20T08:09:31;11.77;;;8.70;;
64619;SDS011;51029;51.058;13.826;2023-08-20T08:11:57;9.70;;;8.70;;
64619;SDS011;51029;51.058;13.826;2023-08-20T08:14:24;9.88;;;8.88;;
64619;SDS011;51029;51.058;13.826;2023-08-20T08:16:49;10.45;;;8.95;;
64619;SDS011;51029;51.058;13.826;2023-08-20T08:19:15;9.60;;;8.60;;
64619;SDS011;51029;51.058;13.826;2023-08-20T08:21:42;9.93;;;8.93;;
64619;SDS011;51029;51.058;13.826;2023-08-20T08:24:08;9.98;;;8.90;;
64619;SDS011;51029;51.058;13.826;2023-08-20T08:26:34;9.60;;;8.65;;
64619;SDS011;51029;51.058;13.826;2023-08-20T08:29:01;10.13;;;8.68;;
64619;SDS011;51029;51.058;13.826;2023-08-20T08:31:30;10.32;;;8.35;;
64619;SDS011;51029;51.058;13.826;2023-08-20T08:33:56;11.93;;;8.77;;
64619;SDS011;51029;51.058;13.826;2023-08-20T08:36:21;9.68;;;8.50;;
64619;SDS011;51029;51.058;13.826;2023-08-20T08:38:49;9.95;;;8.35;;
64619;SDS011;51029;51.058;13.826;2023-08-20T08:41:15;9.63;;;8.45;;
64619;SDS011;51029;51.058;13.826;2023-08-20T08:43:41;9.82;;;8.70;;
64619;SDS011;51029;51.058;13.826;2023-08-20T08:46:11;8.73;;;7.82;;
64619;SDS011;51029;51.058;13.826;2023-08-20T08:48:38;9.48;;;8.25;;
64619;SDS011;51029;51.058;13.826;2023-08-20T08:51:05;9.20;;;8.38;;
64619;SDS011;51029;51.058;13.826;2023-08-20T08:53:31;9.82;;;8.55;;
64619;SDS011;51029;51.058;13.826;2023-08-20T08:55:58;10.05;;;7.38;;
64619;SDS011;51029;51.058;13.826;2023-08-20T08:58:24;8.45;;;7.60;;
64619;SDS011;51029;51.058;13.826;2023-08-20T09:00:50;11.38;;;8.82;;
64619;SDS011;51029;51.058;13.826;2023-08-20T09:03:16;9.73;;;8.10;;
64619;SDS011;51029;51.058;13.826;2023-08-20T09:06:15;9.00;;;8.10;;
64619;SDS011;51029;51.058;13.826;2023-08-20T09:08:34;11.35;;;8.35;;
64619;SDS011;51029;51.058;13.826;2023-08-20T09:11:00;9.07;;;8.02;;
64619;SDS011;51029;51.058;13.826;2023-08-20T09:13:33;8.50;;;7.60;;
64619;SDS011;51029;51.058;13.826;2023-08-20T09:16:05;10.07;;;7.80;;
64619;SDS011;51029;51.058;13.826;2023-08-20T09:18:33;9.80;;;8.23;;
64619;SDS011;51029;51.058;13.826;2023-08-20T09:21:05;9.07;;;7.85;;
64619;SDS011;51029;51.058;13.826;2023-08-20T09:23:34;9.07;;;8.18;;
64619;SDS011;51029;51.058;13.826;2023-08-20T09:26:03;9.23;;;8.43;;
64619;SDS011;51029;51.058;13.826;2023-08-20T09:28:40;9.07;;;8.27;;
64619;SDS011;51029;51.058;13.826;2023-08-20T09:31:07;9.98;;;8.98;;
64619;SDS011;51029;51.058;13.826;2023-08-20T09:33:33;11.45;;;9.35;;
64619;SDS011;51029;51.058;13.826;2023-08-20T09:35:58;9.40;;;8.48;;
64619;SDS011;51029;51.058;13.826;2023-08-20T09:38:24;10.40;;;9.45;;
64619;SDS011;51029;51.058;13.826;2023-08-20T09:40:50;11.77;;;10.68;;
64619;SDS011;51029;51.058;13.826;2023-08-20T09:43:17;10.25;;;9.25;;
64619;SDS011;51029;51.058;13.826;2023-08-20T09:45:44;10.23;;;8.75;;
64619;SDS011;51029;51.058;13.826;2023-08-20T09:48:17;9.95;;;8.98;;
64619;SDS011;51029;51.058;13.826;2023-08-20T09:50:47;10.23;;;9.13;;
64619;SDS011;51029;51.058;13.826;2023-08-20T09:53:27;9.55;;;8.63;;
64619;SDS011;51029;51.058;13.826;2023-08-20T09:56:09;10.55;;;9.07;;
64619;SDS011;51029;51.058;13.826;2023-08-20T09:58:40;9.52;;;8.57;;
64619;SDS011;51029;51.058;13.826;2023-08-20T10:01:07;9.77;;;8.88;;
64619;SDS011;51029;51.058;13.826;2023-08-20T10:03:32;9.93;;;8.93;;
64619;SDS011;51029;51.058;13.826;2023-08-20T10:05:58;11.05;;;9.43;;
64619;SDS011;51029;51.058;13.826;2023-08-20T10:08:26;9.98;;;9.18;;
64619;SDS011;51029;51.058;13.826;2023-08-20T10:10:52;10.23;;;9.32;;
64619;SDS011;51029;51.058;13.826;2023-08-20T10:13:17;9.90;;;9.00;;
64619;SDS011;51029;51.058;13.826;2023-08-20T10:49:26;8.35;;;6.22;;
64619;SDS011;51029;51.058;13.826;2023-08-20T10:51:52;7.32;;;6.22;;
64619;SDS011;51029;51.058;13.826;2023-08-20T10:54:18;9.05;;;6.13;;
64619;SDS011;51029;51.058;13.826;2023-08-20T10:56:45;7.45;;;6.40;;
64619;SDS011;51029;51.058;13.826;2023-08-20T10:59:14;7.57;;;6.88;;
64619;SDS011;51029;51.058;13.826;2023-08-20T11:01:45;7.00;;;6.40;;
64619;SDS011;51029;51.058;13.826;2023-08-20T11:04:11;9.15;;;6.38;;
64619;SDS011;51029;51.058;13.826;2023-08-20T11:06:38;8.15;;;5.40;;
64619;SDS011;51029;51.058;13.826;2023-08-20T11:09:05;5.70;;;5.10;;
64619;SDS011;51029;51.058;13.826;2023-08-20T11:11:31;6.25;;;5.45;;
64619;SDS011;51029;51.058;13.826;2023-08-20T11:13:57;5.68;;;5.07;;
64619;SDS011;51029;51.058;13.826;2023-08-20T11:16:29;5.80;;;5.10;;
64619;SDS011;51029;51.058;13.826;2023-08-20T11:18:55;5.72;;;5.22;;
64619;SDS011;51029;51.058;13.826;2023-08-20T11:21:22;5.50;;;5.00;;
64619;SDS011;51029;51.058;13.826;2023-08-20T11:23:48;5.07;;;4.68;;
64619;SDS011;51029;51.058;13.826;2023-08-20T11:26:13;5.43;;;4.90;;
64619;SDS011;51029;51.058;13.826;2023-08-20T11:28:44;5.45;;;4.47;;
64619;SDS011;51029;51.058;13.826;2023-08-20T11:31:10;5.05;;;4.47;;
64619;SDS011;51029;51.058;13.826;2023-08-20T11:33:36;3.67;;;3.38;;
64619;SDS011;51029;51.058;13.826;2023-08-20T11:36:02;4.03;;;3.25;;
64619;SDS011;51029;51.058;13.826;2023-08-20T11:38:30;3.78;;;3.03;;
64619;SDS011;51029;51.058;13.826;2023-08-20T11:40:57;3.80;;;3.22;;
64619;SDS011;51029;51.058;13.826;2023-08-20T11:43:24;4.07;;;3.40;;
64619;SDS011;51029;51.058;13.826;2023-08-20T11:45:52;5.28;;;3.42;;
64619;SDS011;51029;51.058;13.826;2023-08-20T11:48:19;4.03;;;3.00;;
64619;SDS011;51029;51.058;13.826;2023-08-20T11:50:46;3.83;;;3.45;;
64619;SDS011;51029;51.058;13.826;2023-08-20T11:53:12;5.57;;;3.45;;
64619;SDS011;51029;51.058;13.826;2023-08-20T11:55:41;6.10;;;3.20;;
64619;SDS011;51029;51.058;13.826;2023-08-20T11:58:13;4.53;;;3.30;;
64619;SDS011;51029;51.058;13.826;2023-08-20T12:00:39;4.15;;;3.30;;
64619;SDS011;51029;51.058;13.826;2023-08-20T12:03:05;3.83;;;3.35;;
64619;SDS011;51029;51.058;13.826;2023-08-20T12:05:31;3.30;;;3.00;;
64619;SDS011;51029;51.058;13.826;2023-08-20T12:07:57;4.75;;;3.30;;
64619;SDS011;51029;51.058;13.826;2023-08-20T12:10:24;3.95;;;3.42;;
64619;SDS011;51029;51.058;13.826;2023-08-20T12:12:51;6.18;;;3.70;;
64619;SDS011;51029;51.058;13.826;2023-08-20T12:15:18;3.97;;;3.65;;
64619;SDS011;51029;51.058;13.826;2023-08-20T12:17:54;4.00;;;3.65;;
64619;SDS011;51029;51.058;13.826;2023-08-20T12:20:26;5.00;;;3.45;;
64619;SDS011;51029;51.058;13.826;2023-08-20T12:22:53;4.50;;;4.10;;
64619;SDS011;51029;51.058;13.826;2023-08-20T12:25:18;4.10;;;3.70;;
64619;SDS011;51029;51.058;13.826;2023-08-20T12:27:44;5.05;;;3.78;;
64619;SDS011;51029;51.058;13.826;2023-08-20T12:30:10;4.25;;;3.70;;
64619;SDS011;51029;51.058;13.826;2023-08-20T12:32:36;3.97;;;3.55;;
64619;SDS011;51029;51.058;13.826;2023-08-20T12:35:01;4.13;;;3.58;;
64619;SDS011;51029;51.058;13.826;2023-08-20T12:37:27;4.00;;;3.60;;
64619;SDS011;51029;51.058;13.826;2023-08-20T12:39:53;5.45;;;3.83;;
64619;SDS011;51029;51.058;13.826;2023-08-20T12:42:18;6.25;;;3.80;;
64619;SDS011;51029;51.058;13.826;2023-08-20T12:44:44;4.72;;;3.95;;
64619;SDS011;51029;51.058;13.826;2023-08-20T12:47:10;4.47;;;3.90;;
64619;SDS011;51029;51.058;13.826;2023-08-20T12:49:35;4.38;;;3.80;;
64619;SDS011;51029;51.058;13.826;2023-08-20T12:52:01;4.20;;;3.80;;
64619;SDS011;51029;51.058;13.826;2023-08-20T12:54:26;5.00;;;3.75;;
64619;SDS011;51029;51.058;13.826;2023-08-20T12:56:52;3.88;;;3.20;;
64619;SDS011;51029;51.058;13.826;2023-08-20T12:59:17;5.15;;;3.10;;
64619;SDS011;51029;51.058;13.826;2023-08-20T13:01:43;3.60;;;3.03;;
64619;SDS011;51029;51.058;13.826;2023-08-20T13:04:09;3.50;;;3.20;;
64619;SDS011;51029;51.058;13.826;2023-08-20T13:06:36;3.55;;;3.10;;
64619;SDS011;51029;51.058;13.826;2023-08-20T13:09:02;3.92;;;3.20;;
64619;SDS011;51029;51.058;13.826;2023-08-20T13:11:28;5.68;;;3.38;;
64619;SDS011;51029;51.058;13.826;2023-08-20T13:13:56;5.15;;;3.08;;
64619;SDS011;51029;51.058;13.826;2023-08-20T13:16:22;3.47;;;3.17;;
64619;SDS011;51029;51.058;13.826;2023-08-20T13:18:48;5.35;;;3.40;;
64619;SDS011;51029;51.058;13.826;2023-08-20T13:21:14;4.95;;;3.53;;
64619;SDS011;51029;51.058;13.826;2023-08-20T13:23:39;4.85;;;3.70;;
64619;SDS011;51029;51.058;13.826;2023-08-20T13:26:05;5.28;;;3.30;;
64619;SDS011;51029;51.058;13.826;2023-08-20T13:28:31;4.28;;;3.60;;
64619;SDS011;51029;51.058;13.826;2023-08-20T13:30:57;3.70;;;3.40;;
64619;SDS011;51029;51.058;13.826;2023-08-20T13:33:22;5.28;;;3.60;;
64619;SDS011;51029;51.058;13.826;2023-08-20T13:35:48;5.88;;;3.50;;
64619;SDS011;51029;51.058;13.826;2023-08-20T13:38:14;4.53;;;3.63;;
64619;SDS011;51029;51.058;13.826;2023-08-20T13:40:40;4.63;;;3.28;;
64619;SDS011;51029;51.058;13.826;2023-08-20T13:43:05;5.10;;;3.80;;
64619;SDS011;51029;51.058;13.826;2023-08-20T13:45:31;6.35;;;3.75;;
64619;SDS011;51029;51.058;13.826;2023-08-20T13:47:57;4.68;;;3.95;;
64619;SDS011;51029;51.058;13.826;2023-08-20T13:50:22;4.60;;;4.20;;
64619;SDS011;51029;51.058;13.826;2023-08-20T13:52:48;5.78;;;4.10;;
64619;SDS011;51029;51.058;13.826;2023-08-20T13:55:14;6.65;;;4.13;;
64619;SDS011;51029;51.058;13.826;2023-08-20T13:57:40;5.90;;;4.43;;
64619;SDS011;51029;51.058;13.826;2023-08-20T14:00:06;5.93;;;4.13;;
64619;SDS011;51029;51.058;13.826;2023-08-20T14:02:37;7.13;;;3.92;;
64619;SDS011;51029;51.058;13.826;2023-08-20T14:05:02;5.53;;;4.47;;
64619;SDS011;51029;51.058;13.826;2023-08-20T14:07:31;4.50;;;3.72;;
64619;SDS011;51029;51.058;13.826;2023-08-20T14:10:00;4.32;;;3.92;;
64619;SDS011;51029;51.058;13.826;2023-08-20T14:12:26;4.35;;;3.88;;
64619;SDS011;51029;51.058;13.826;2023-08-20T14:14:52;5.70;;;3.90;;
64619;SDS011;51029;51.058;13.826;2023-08-20T14:17:18;5.65;;;3.80;;
64619;SDS011;51029;51.058;13.826;2023-08-20T14:19:43;4.72;;;3.60;;
64619;SDS011;51029;51.058;13.826;2023-08-20T14:22:09;4.80;;;3.65;;
64619;SDS011;51029;51.058;13.826;2023-08-20T14:24:34;5.15;;;4.05;;
64619;SDS011;51029;51.058;13.826;2023-08-20T14:27:00;6.07;;;3.90;;
64619;SDS011;51029;51.058;13.826;2023-08-20T14:29:25;4.55;;;3.22;;
64619;SDS011;51029;51.058;13.826;2023-08-20T14:31:51;5.25;;;3.60;;
64619;SDS011;51029;51.058;13.826;2023-08-20T14:34:16;5.97;;;3.97;;
64619;SDS011;51029;51.058;13.826;2023-08-20T14:36:42;4.78;;;3.55;;
64619;SDS011;51029;51.058;13.826;2023-08-20T14:39:07;4.20;;;3.80;;
64619;SDS011;51029;51.058;13.826;2023-08-20T14:41:33;4.28;;;3.40;;
64619;SDS011;51029;51.058;13.826;2023-08-20T14:43:59;3.97;;;3.58;;
64619;SDS011;51029;51.058;13.826;2023-08-20T14:46:24;4.28;;;3.65;;
64619;SDS011;51029;51.058;13.826;2023-08-20T14:48:50;4.50;;;3.83;;
64619;SDS011;51029;51.058;13.826;2023-08-20T14:51:15;4.53;;;3.55;;
64619;SDS011;51029;51.058;13.826;2023-08-20T14:53:41;3.50;;;3.17;;
64619;SDS011;51029;51.058;13.826;2023-08-20T14:56:06;4.55;;;3.80;;
64619;SDS011;51029;51.058;13.826;2023-08-20T14:58:32;5.15;;;3.88;;
64619;SDS011;51029;51.058;13.826;2023-08-20T15:00:58;4.55;;;3.70;;